Mount Pleasant, SC (29464)

8:29 AM EDT on October 01, 2016 (GMT -0400)
Snee Farm | | Change Station

Elev 22 ft 32.84 °N, 79.84 °W | Updated 3 minutes ago

Mostly Cloudy
Mostly Cloudy
65.4 °F
Feels Like 65.4 °F
N
0.0
Wind Variable Wind from South

Today
High -- | Low -- °F
--% Chance of Precip.
Yesterday
High -- | Low -- °F
Precip. -- in
Pressure 30.07 in
Visibility 10.0 miles
Clouds Few 6500 ft
Mostly Cloudy 8000 ft
Mostly Cloudy 8500 ft
Dew Point 64 °F
Humidity 96%
Rainfall 0.00 in
Snow Depth Not available.
7:13 AM 7:03 PM
New Moon, 0% visible
METAR KJZI 011215Z AUTO 35005KT 10SM FEW065 BKN080 BKN085 20/16 A3007 RMK AO2 LTG DSNT E AND SE
Pressure 30.07 in
Visibility 10.0 miles
Clouds Few 6500 ft
Mostly Cloudy 8000 ft
Mostly Cloudy 8500 ft
Dew Point 64 °F
Humidity 96%
Rainfall 0.00 in
Snow Depth Not available.
7:13 AM 7:03 PM
New Moon, 0% visible
METAR KJZI 011215Z AUTO 35005KT 10SM FEW065 BKN080 BKN085 20/16 A3007 RMK AO2 LTG DSNT E AND SE

10-Day Weather Forecast

Almanac

Astronomy

Oct. 01, 2016 Rise Set
Actual Time
Civil Twilight
Nautical Twilight
Astronomical Twilight
Moon
Length of Visible Light
Length of Day
Tomorrow will be .
, % of the Moon is Illuminated

Today's Extremes

State Highs State Lows

Community

WunderPhotos

Upload Photos

1,942,920 photos uploaded!

WunderBlog® & News

Nearby

Air Quality

  Air Quality AQ Index Pollutant
Not available.

Snow Depth

Station Depth Elevation

Earthquake Activity

City Distance Mag. Time & Date
Minimum magnitude displayed is 2.5.

Coastal Water Temperatures

Place Temperature

Stations

Nearby Weather Stations

Station Location Temp. Windchill Dew Point Humidity Wind Precip. Elev Updated Type
                   

Watches & Warnings

There are currently no watches in effect.